sensor_id;sensor_type;location;lat;lon;timestamp;P1;durP1;ratioP1;P2;durP2;ratioP2
77800;SDS011;66991;50.058;14.454;2023-03-01T00:01:00;36.80;;;16.75;;
77800;SDS011;66991;50.058;14.454;2023-03-01T00:03:29;34.42;;;16.77;;
77800;SDS011;66991;50.058;14.454;2023-03-01T00:05:54;35.42;;;17.02;;
77800;SDS011;66991;50.058;14.454;2023-03-01T00:08:20;40.83;;;18.73;;
77800;SDS011;66991;50.058;14.454;2023-03-01T00:10:45;41.45;;;18.23;;
77800;SDS011;66991;50.058;14.454;2023-03-01T00:13:10;40.13;;;17.55;;
77800;SDS011;66991;50.058;14.454;2023-03-01T00:15:39;42.53;;;17.98;;
77800;SDS011;66991;50.058;14.454;2023-03-01T00:18:06;36.25;;;18.88;;
77800;SDS011;66991;50.058;14.454;2023-03-01T00:20:31;40.40;;;18.92;;
77800;SDS011;66991;50.058;14.454;2023-03-01T00:22:57;41.80;;;18.77;;
77800;SDS011;66991;50.058;14.454;2023-03-01T00:25:22;38.53;;;17.88;;
77800;SDS011;66991;50.058;14.454;2023-03-01T00:27:47;37.53;;;16.90;;
77800;SDS011;66991;50.058;14.454;2023-03-01T00:30:13;40.53;;;17.90;;
77800;SDS011;66991;50.058;14.454;2023-03-01T00:32:39;41.63;;;18.40;;
77800;SDS011;66991;50.058;14.454;2023-03-01T00:35:04;42.00;;;18.45;;
77800;SDS011;66991;50.058;14.454;2023-03-01T00:37:30;37.63;;;18.67;;
77800;SDS011;66991;50.058;14.454;2023-03-01T00:39:56;44.58;;;19.05;;
77800;SDS011;66991;50.058;14.454;2023-03-01T00:42:21;42.67;;;20.20;;
77800;SDS011;66991;50.058;14.454;2023-03-01T00:44:47;41.80;;;19.65;;
77800;SDS011;66991;50.058;14.454;2023-03-01T00:47:12;39.22;;;18.23;;
77800;SDS011;66991;50.058;14.454;2023-03-01T00:49:38;39.53;;;18.25;;
77800;SDS011;66991;50.058;14.454;2023-03-01T00:52:04;43.03;;;18.92;;
77800;SDS011;66991;50.058;14.454;2023-03-01T00:54:29;37.38;;;17.38;;
77800;SDS011;66991;50.058;14.454;2023-03-01T00:56:54;38.88;;;16.75;;
77800;SDS011;66991;50.058;14.454;2023-03-01T00:59:20;39.88;;;19.00;;
77800;SDS011;66991;50.058;14.454;2023-03-01T01:01:45;40.22;;;17.33;;
77800;SDS011;66991;50.058;14.454;2023-03-01T01:04:11;41.65;;;18.08;;
77800;SDS011;66991;50.058;14.454;2023-03-01T01:06:41;38.95;;;16.63;;
77800;SDS011;66991;50.058;14.454;2023-03-01T01:11:41;34.70;;;15.45;;
77800;SDS011;66991;50.058;14.454;2023-03-01T01:14:07;39.42;;;16.80;;
77800;SDS011;66991;50.058;14.454;2023-03-01T01:16:32;35.47;;;16.65;;
77800;SDS011;66991;50.058;14.454;2023-03-01T01:18:58;36.33;;;17.10;;
77800;SDS011;66991;50.058;14.454;2023-03-01T01:21:24;37.55;;;16.23;;
77800;SDS011;66991;50.058;14.454;2023-03-01T01:23:50;36.92;;;16.08;;
77800;SDS011;66991;50.058;14.454;2023-03-01T01:26:17;38.90;;;16.63;;
77800;SDS011;66991;50.058;14.454;2023-03-01T01:28:43;39.75;;;17.10;;
77800;SDS011;66991;50.058;14.454;2023-03-01T01:31:10;41.28;;;16.67;;
77800;SDS011;66991;50.058;14.454;2023-03-01T01:33:35;38.10;;;18.15;;
77800;SDS011;66991;50.058;14.454;2023-03-01T01:36:02;37.33;;;16.77;;
77800;SDS011;66991;50.058;14.454;2023-03-01T01:38:28;33.47;;;15.90;;
77800;SDS011;66991;50.058;14.454;2023-03-01T01:40:53;34.90;;;15.70;;
77800;SDS011;66991;50.058;14.454;2023-03-01T01:43:20;39.58;;;16.80;;
77800;SDS011;66991;50.058;14.454;2023-03-01T01:45:50;39.67;;;17.13;;
77800;SDS011;66991;50.058;14.454;2023-03-01T01:48:21;35.63;;;16.35;;
77800;SDS011;66991;50.058;14.454;2023-03-01T01:50:55;38.45;;;15.68;;
77800;SDS011;66991;50.058;14.454;2023-03-01T01:53:22;33.80;;;15.48;;
77800;SDS011;66991;50.058;14.454;2023-03-01T01:55:51;33.67;;;15.50;;
77800;SDS011;66991;50.058;14.454;2023-03-01T01:58:19;36.25;;;14.82;;
77800;SDS011;66991;50.058;14.454;2023-03-01T02:00:45;37.67;;;17.10;;
77800;SDS011;66991;50.058;14.454;2023-03-01T02:03:11;37.08;;;16.10;;
77800;SDS011;66991;50.058;14.454;2023-03-01T02:08:26;36.38;;;15.40;;
77800;SDS011;66991;50.058;14.454;2023-03-01T02:10:55;30.95;;;14.18;;
77800;SDS011;66991;50.058;14.454;2023-03-01T02:13:21;33.15;;;14.82;;
77800;SDS011;66991;50.058;14.454;2023-03-01T02:15:46;34.47;;;14.80;;
77800;SDS011;66991;50.058;14.454;2023-03-01T02:18:14;36.53;;;15.00;;
77800;SDS011;66991;50.058;14.454;2023-03-01T02:23:14;28.00;;;13.93;;
77800;SDS011;66991;50.058;14.454;2023-03-01T02:25:54;33.53;;;13.68;;
77800;SDS011;66991;50.058;14.454;2023-03-01T02:28:32;31.05;;;14.00;;
77800;SDS011;66991;50.058;14.454;2023-03-01T02:31:00;31.40;;;14.05;;
77800;SDS011;66991;50.058;14.454;2023-03-01T02:33:44;28.90;;;13.77;;
77800;SDS011;66991;50.058;14.454;2023-03-01T02:36:12;31.15;;;14.10;;
77800;SDS011;66991;50.058;14.454;2023-03-01T02:38:41;33.20;;;14.98;;
77800;SDS011;66991;50.058;14.454;2023-03-01T02:41:07;30.10;;;14.20;;
77800;SDS011;66991;50.058;14.454;2023-03-01T02:43:33;26.95;;;13.15;;
77800;SDS011;66991;50.058;14.454;2023-03-01T02:46:03;30.95;;;14.55;;
77800;SDS011;66991;50.058;14.454;2023-03-01T02:48:50;30.05;;;13.40;;
77800;SDS011;66991;50.058;14.454;2023-03-01T02:51:20;33.53;;;14.52;;
77800;SDS011;66991;50.058;14.454;2023-03-01T02:56:44;30.58;;;12.73;;
77800;SDS011;66991;50.058;14.454;2023-03-01T02:59:13;33.03;;;13.82;;
77800;SDS011;66991;50.058;14.454;2023-03-01T03:01:39;30.95;;;14.05;;
77800;SDS011;66991;50.058;14.454;2023-03-01T03:04:09;35.75;;;14.60;;
77800;SDS011;66991;50.058;14.454;2023-03-01T03:06:36;32.50;;;15.73;;
77800;SDS011;66991;50.058;14.454;2023-03-01T03:09:02;39.15;;;16.25;;
77800;SDS011;66991;50.058;14.454;2023-03-01T03:11:29;35.40;;;14.73;;
77800;SDS011;66991;50.058;14.454;2023-03-01T03:13:55;32.42;;;14.40;;
77800;SDS011;66991;50.058;14.454;2023-03-01T03:16:20;33.17;;;14.20;;
77800;SDS011;66991;50.058;14.454;2023-03-01T03:18:46;31.98;;;13.68;;
77800;SDS011;66991;50.058;14.454;2023-03-01T03:21:12;31.65;;;13.50;;
77800;SDS011;66991;50.058;14.454;2023-03-01T03:23:37;31.77;;;13.52;;
77800;SDS011;66991;50.058;14.454;2023-03-01T03:26:03;35.65;;;14.82;;
77800;SDS011;66991;50.058;14.454;2023-03-01T03:28:30;30.02;;;14.10;;
77800;SDS011;66991;50.058;14.454;2023-03-01T03:30:55;31.95;;;14.25;;
77800;SDS011;66991;50.058;14.454;2023-03-01T03:33:21;31.73;;;14.75;;
77800;SDS011;66991;50.058;14.454;2023-03-01T03:35:47;30.20;;;13.73;;
77800;SDS011;66991;50.058;14.454;2023-03-01T03:38:14;33.70;;;13.65;;
77800;SDS011;66991;50.058;14.454;2023-03-01T03:41:00;31.45;;;14.13;;
77800;SDS011;66991;50.058;14.454;2023-03-01T03:43:28;34.95;;;13.82;;
77800;SDS011;66991;50.058;14.454;2023-03-01T03:45:53;29.95;;;14.38;;
77800;SDS011;66991;50.058;14.454;2023-03-01T03:48:19;28.40;;;13.75;;
77800;SDS011;66991;50.058;14.454;2023-03-01T03:50:54;33.17;;;13.68;;
77800;SDS011;66991;50.058;14.454;2023-03-01T03:53:21;28.85;;;13.30;;
77800;SDS011;66991;50.058;14.454;2023-03-01T03:55:48;27.42;;;13.43;;
77800;SDS011;66991;50.058;14.454;2023-03-01T03:58:16;28.27;;;13.20;;
77800;SDS011;66991;50.058;14.454;2023-03-01T04:00:44;34.55;;;14.00;;
77800;SDS011;66991;50.058;14.454;2023-03-01T04:03:11;28.88;;;13.05;;
77800;SDS011;66991;50.058;14.454;2023-03-01T04:05:38;29.83;;;14.50;;
77800;SDS011;66991;50.058;14.454;2023-03-01T04:08:04;32.47;;;13.90;;
77800;SDS011;66991;50.058;14.454;2023-03-01T04:10:34;31.33;;;13.30;;
77800;SDS011;66991;50.058;14.454;2023-03-01T04:13:01;37.50;;;14.98;;
77800;SDS011;66991;50.058;14.454;2023-03-01T04:15:26;30.05;;;13.85;;
77800;SDS011;66991;50.058;14.454;2023-03-01T04:17:52;33.83;;;15.43;;
77800;SDS011;66991;50.058;14.454;2023-03-01T04:20:19;33.70;;;16.33;;
77800;SDS011;66991;50.058;14.454;2023-03-01T04:22:50;36.65;;;15.10;;
77800;SDS011;66991;50.058;14.454;2023-03-01T04:25:23;35.70;;;14.93;;
77800;SDS011;66991;50.058;14.454;2023-03-01T04:27:48;35.75;;;16.63;;
77800;SDS011;66991;50.058;14.454;2023-03-01T04:30:14;37.92;;;16.42;;
77800;SDS011;66991;50.058;14.454;2023-03-01T04:32:40;37.83;;;15.95;;
77800;SDS011;66991;50.058;14.454;2023-03-01T04:35:05;40.83;;;16.30;;
77800;SDS011;66991;50.058;14.454;2023-03-01T04:37:31;37.30;;;15.38;;
77800;SDS011;66991;50.058;14.454;2023-03-01T04:39:56;31.75;;;14.25;;
77800;SDS011;66991;50.058;14.454;2023-03-01T04:42:22;34.90;;;15.70;;
77800;SDS011;66991;50.058;14.454;2023-03-01T04:44:47;37.45;;;15.70;;
77800;SDS011;66991;50.058;14.454;2023-03-01T04:47:16;37.42;;;16.45;;
77800;SDS011;66991;50.058;14.454;2023-03-01T04:49:41;32.35;;;15.43;;
77800;SDS011;66991;50.058;14.454;2023-03-01T04:52:07;36.42;;;15.38;;
77800;SDS011;66991;50.058;14.454;2023-03-01T04:54:33;41.92;;;16.92;;
77800;SDS011;66991;50.058;14.454;2023-03-01T04:56:58;37.20;;;15.95;;
77800;SDS011;66991;50.058;14.454;2023-03-01T04:59:25;35.45;;;15.45;;
77800;SDS011;66991;50.058;14.454;2023-03-01T05:01:53;41.60;;;17.77;;
77800;SDS011;66991;50.058;14.454;2023-03-01T05:04:22;41.53;;;16.45;;
77800;SDS011;66991;50.058;14.454;2023-03-01T05:06:47;31.77;;;15.10;;
77800;SDS011;66991;50.058;14.454;2023-03-01T05:09:13;42.55;;;16.48;;
77800;SDS011;66991;50.058;14.454;2023-03-01T05:11:38;35.55;;;15.18;;
77800;SDS011;66991;50.058;14.454;2023-03-01T05:14:07;31.67;;;15.05;;
77800;SDS011;66991;50.058;14.454;2023-03-01T05:16:34;32.63;;;15.95;;
77800;SDS011;66991;50.058;14.454;2023-03-01T05:19:01;33.63;;;14.88;;
77800;SDS011;66991;50.058;14.454;2023-03-01T05:21:36;42.30;;;17.60;;
77800;SDS011;66991;50.058;14.454;2023-03-01T05:24:22;34.20;;;15.00;;
77800;SDS011;66991;50.058;14.454;2023-03-01T05:26:47;42.10;;;15.65;;
77800;SDS011;66991;50.058;14.454;2023-03-01T05:29:13;38.95;;;16.42;;
77800;SDS011;66991;50.058;14.454;2023-03-01T05:31:38;41.30;;;15.93;;
77800;SDS011;66991;50.058;14.454;2023-03-01T05:34:03;37.63;;;15.77;;
77800;SDS011;66991;50.058;14.454;2023-03-01T05:36:29;39.20;;;15.70;;
77800;SDS011;66991;50.058;14.454;2023-03-01T05:38:54;37.67;;;16.48;;
77800;SDS011;66991;50.058;14.454;2023-03-01T05:41:20;39.45;;;16.30;;
77800;SDS011;66991;50.058;14.454;2023-03-01T05:43:46;36.47;;;16.60;;
77800;SDS011;66991;50.058;14.454;2023-03-01T05:46:11;48.03;;;17.27;;
77800;SDS011;66991;50.058;14.454;2023-03-01T05:48:38;42.35;;;17.35;;
77800;SDS011;66991;50.058;14.454;2023-03-01T05:51:03;47.83;;;18.75;;
77800;SDS011;66991;50.058;14.454;2023-03-01T05:53:29;49.60;;;17.80;;
77800;SDS011;66991;50.058;14.454;2023-03-01T05:55:54;46.75;;;18.77;;
77800;SDS011;66991;50.058;14.454;2023-03-01T05:58:20;36.03;;;15.60;;
77800;SDS011;66991;50.058;14.454;2023-03-01T06:00:47;42.90;;;17.23;;
77800;SDS011;66991;50.058;14.454;2023-03-01T06:03:13;39.50;;;16.75;;
77800;SDS011;66991;50.058;14.454;2023-03-01T06:05:40;36.00;;;17.30;;
77800;SDS011;66991;50.058;14.454;2023-03-01T06:08:06;38.40;;;14.23;;
77800;SDS011;66991;50.058;14.454;2023-03-01T06:10:32;39.17;;;16.67;;
77800;SDS011;66991;50.058;14.454;2023-03-01T06:12:57;37.58;;;15.35;;
77800;SDS011;66991;50.058;14.454;2023-03-01T06:15:23;35.60;;;15.45;;
77800;SDS011;66991;50.058;14.454;2023-03-01T06:17:49;37.63;;;16.90;;
77800;SDS011;66991;50.058;14.454;2023-03-01T06:20:19;42.67;;;17.85;;
77800;SDS011;66991;50.058;14.454;2023-03-01T06:22:46;39.58;;;16.98;;
77800;SDS011;66991;50.058;14.454;2023-03-01T06:25:12;42.97;;;17.45;;
77800;SDS011;66991;50.058;14.454;2023-03-01T06:27:39;44.45;;;16.75;;
77800;SDS011;66991;50.058;14.454;2023-03-01T06:30:05;38.15;;;16.65;;
77800;SDS011;66991;50.058;14.454;2023-03-01T06:32:31;40.35;;;16.90;;
77800;SDS011;66991;50.058;14.454;2023-03-01T06:34:57;38.38;;;14.93;;
77800;SDS011;66991;50.058;14.454;2023-03-01T06:37:23;39.75;;;16.85;;
77800;SDS011;66991;50.058;14.454;2023-03-01T06:39:49;35.30;;;15.93;;
77800;SDS011;66991;50.058;14.454;2023-03-01T06:42:14;39.03;;;16.02;;
77800;SDS011;66991;50.058;14.454;2023-03-01T06:44:39;34.45;;;16.27;;
77800;SDS011;66991;50.058;14.454;2023-03-01T06:47:05;36.22;;;16.05;;
77800;SDS011;66991;50.058;14.454;2023-03-01T06:49:30;31.77;;;13.98;;
77800;SDS011;66991;50.058;14.454;2023-03-01T06:51:56;35.88;;;15.18;;
77800;SDS011;66991;50.058;14.454;2023-03-01T06:54:22;38.83;;;17.08;;
77800;SDS011;66991;50.058;14.454;2023-03-01T06:56:47;34.83;;;15.70;;
77800;SDS011;66991;50.058;14.454;2023-03-01T06:59:13;38.70;;;16.08;;
77800;SDS011;66991;50.058;14.454;2023-03-01T07:01:39;40.75;;;17.60;;
77800;SDS011;66991;50.058;14.454;2023-03-01T07:04:04;36.58;;;15.23;;
77800;SDS011;66991;50.058;14.454;2023-03-01T07:06:29;33.60;;;15.73;;
77800;SDS011;66991;50.058;14.454;2023-03-01T07:08:55;34.17;;;15.20;;
77800;SDS011;66991;50.058;14.454;2023-03-01T07:11:20;36.63;;;16.38;;
77800;SDS011;66991;50.058;14.454;2023-03-01T07:13:46;39.03;;;17.10;;
77800;SDS011;66991;50.058;14.454;2023-03-01T07:16:11;34.92;;;16.73;;
77800;SDS011;66991;50.058;14.454;2023-03-01T07:18:36;40.67;;;16.88;;
77800;SDS011;66991;50.058;14.454;2023-03-01T07:21:06;44.65;;;16.02;;
77800;SDS011;66991;50.058;14.454;2023-03-01T07:23:32;34.50;;;15.75;;
77800;SDS011;66991;50.058;14.454;2023-03-01T07:25:57;37.90;;;14.88;;
77800;SDS011;66991;50.058;14.454;2023-03-01T07:28:23;32.83;;;14.65;;
77800;SDS011;66991;50.058;14.454;2023-03-01T07:30:48;34.08;;;15.43;;
77800;SDS011;66991;50.058;14.454;2023-03-01T07:33:14;37.38;;;15.43;;
77800;SDS011;66991;50.058;14.454;2023-03-01T07:35:39;32.72;;;13.57;;
77800;SDS011;66991;50.058;14.454;2023-03-01T07:38:04;37.33;;;15.30;;
77800;SDS011;66991;50.058;14.454;2023-03-01T07:40:30;30.40;;;13.65;;
77800;SDS011;66991;50.058;14.454;2023-03-01T07:42:56;36.08;;;14.27;;
77800;SDS011;66991;50.058;14.454;2023-03-01T07:45:22;32.97;;;15.02;;
77800;SDS011;66991;50.058;14.454;2023-03-01T07:47:49;35.40;;;14.75;;
77800;SDS011;66991;50.058;14.454;2023-03-01T07:50:15;35.33;;;13.95;;
77800;SDS011;66991;50.058;14.454;2023-03-01T07:52:41;36.38;;;15.65;;
77800;SDS011;66991;50.058;14.454;2023-03-01T07:55:06;35.67;;;14.82;;
77800;SDS011;66991;50.058;14.454;2023-03-01T07:57:32;36.03;;;17.27;;
77800;SDS011;66991;50.058;14.454;2023-03-01T07:59:57;32.88;;;14.23;;
77800;SDS011;66991;50.058;14.454;2023-03-01T08:02:22;37.10;;;14.70;;
77800;SDS011;66991;50.058;14.454;2023-03-01T08:04:47;35.70;;;15.45;;
77800;SDS011;66991;50.058;14.454;2023-03-01T08:07:13;31.58;;;13.93;;
77800;SDS011;66991;50.058;14.454;2023-03-01T08:09:38;36.15;;;14.98;;
77800;SDS011;66991;50.058;14.454;2023-03-01T08:12:04;34.97;;;15.15;;
77800;SDS011;66991;50.058;14.454;2023-03-01T08:14:30;34.25;;;16.05;;
77800;SDS011;66991;50.058;14.454;2023-03-01T08:16:56;32.10;;;15.00;;
77800;SDS011;66991;50.058;14.454;2023-03-01T08:19:21;35.58;;;15.15;;
77800;SDS011;66991;50.058;14.454;2023-03-01T08:21:46;29.85;;;15.18;;
77800;SDS011;66991;50.058;14.454;2023-03-01T08:24:12;39.78;;;17.90;;
77800;SDS011;66991;50.058;14.454;2023-03-01T08:26:37;36.97;;;14.45;;
77800;SDS011;66991;50.058;14.454;2023-03-01T08:29:03;33.03;;;15.60;;
77800;SDS011;66991;50.058;14.454;2023-03-01T08:31:35;36.67;;;15.45;;
77800;SDS011;66991;50.058;14.454;2023-03-01T08:34:03;31.40;;;14.73;;
77800;SDS011;66991;50.058;14.454;2023-03-01T08:36:33;36.45;;;15.52;;
77800;SDS011;66991;50.058;14.454;2023-03-01T08:39:02;28.52;;;14.32;;
77800;SDS011;66991;50.058;14.454;2023-03-01T08:41:28;33.40;;;15.10;;
77800;SDS011;66991;50.058;14.454;2023-03-01T08:43:54;32.97;;;15.02;;
77800;SDS011;66991;50.058;14.454;2023-03-01T08:46:24;31.38;;;13.75;;
77800;SDS011;66991;50.058;14.454;2023-03-01T08:48:52;31.00;;;13.95;;
77800;SDS011;66991;50.058;14.454;2023-03-01T08:51:18;31.23;;;15.07;;
77800;SDS011;66991;50.058;14.454;2023-03-01T08:53:44;29.40;;;13.55;;
77800;SDS011;66991;50.058;14.454;2023-03-01T08:56:10;31.35;;;14.82;;
77800;SDS011;66991;50.058;14.454;2023-03-01T08:58:36;32.47;;;13.95;;
77800;SDS011;66991;50.058;14.454;2023-03-01T09:01:09;35.67;;;15.25;;
77800;SDS011;66991;50.058;14.454;2023-03-01T09:03:35;29.05;;;12.25;;
77800;SDS011;66991;50.058;14.454;2023-03-01T09:06:01;27.92;;;13.35;;
77800;SDS011;66991;50.058;14.454;2023-03-01T09:08:27;29.67;;;12.93;;
77800;SDS011;66991;50.058;14.454;2023-03-01T09:10:53;29.95;;;13.45;;
77800;SDS011;66991;50.058;14.454;2023-03-01T09:13:18;31.98;;;14.05;;
77800;SDS011;66991;50.058;14.454;2023-03-01T09:15:44;32.35;;;14.55;;
77800;SDS011;66991;50.058;14.454;2023-03-01T09:18:09;30.63;;;14.73;;
77800;SDS011;66991;50.058;14.454;2023-03-01T09:20:34;27.75;;;12.68;;
77800;SDS011;66991;50.058;14.454;2023-03-01T09:23:00;28.50;;;14.90;;
77800;SDS011;66991;50.058;14.454;2023-03-01T09:25:25;30.35;;;14.50;;
77800;SDS011;66991;50.058;14.454;2023-03-01T09:27:51;29.88;;;14.45;;
77800;SDS011;66991;50.058;14.454;2023-03-01T09:30:17;32.42;;;13.82;;
77800;SDS011;66991;50.058;14.454;2023-03-01T09:32:42;28.48;;;13.45;;
77800;SDS011;66991;50.058;14.454;2023-03-01T09:35:09;27.48;;;13.93;;
77800;SDS011;66991;50.058;14.454;2023-03-01T09:37:35;25.08;;;13.25;;
77800;SDS011;66991;50.058;14.454;2023-03-01T09:40:02;26.73;;;13.02;;
77800;SDS011;66991;50.058;14.454;2023-03-01T09:42:32;30.20;;;13.60;;
77800;SDS011;66991;50.058;14.454;2023-03-01T09:45:06;25.90;;;12.23;;
77800;SDS011;66991;50.058;14.454;2023-03-01T09:47:36;26.90;;;11.85;;
77800;SDS011;66991;50.058;14.454;2023-03-01T09:52:46;24.30;;;12.23;;
77800;SDS011;66991;50.058;14.454;2023-03-01T09:55:14;23.92;;;11.48;;
77800;SDS011;66991;50.058;14.454;2023-03-01T09:57:43;25.30;;;11.07;;
77800;SDS011;66991;50.058;14.454;2023-03-01T10:00:46;27.00;;;12.43;;
77800;SDS011;66991;50.058;14.454;2023-03-01T10:06:09;22.15;;;11.93;;
77800;SDS011;66991;50.058;14.454;2023-03-01T10:11:20;24.55;;;11.85;;
77800;SDS011;66991;50.058;14.454;2023-03-01T10:14:05;21.92;;;10.80;;
77800;SDS011;66991;50.058;14.454;2023-03-01T10:16:51;22.15;;;10.93;;
77800;SDS011;66991;50.058;14.454;2023-03-01T10:19:23;21.67;;;11.45;;
77800;SDS011;66991;50.058;14.454;2023-03-01T10:24:48;21.73;;;10.82;;
77800;SDS011;66991;50.058;14.454;2023-03-01T10:27:19;18.58;;;9.55;;
77800;SDS011;66991;50.058;14.454;2023-03-01T10:32:17;20.58;;;11.05;;
77800;SDS011;66991;50.058;14.454;2023-03-01T10:34:43;25.48;;;11.73;;
77800;SDS011;66991;50.058;14.454;2023-03-01T10:37:12;21.83;;;11.43;;
77800;SDS011;66991;50.058;14.454;2023-03-01T10:42:34;22.92;;;10.65;;
77800;SDS011;66991;50.058;14.454;2023-03-01T10:45:14;20.10;;;10.82;;
77800;SDS011;66991;50.058;14.454;2023-03-01T10:48:03;19.80;;;10.85;;
77800;SDS011;66991;50.058;14.454;2023-03-01T10:50:43;24.67;;;10.93;;
77800;SDS011;66991;50.058;14.454;2023-03-01T10:53:19;22.55;;;11.45;;
77800;SDS011;66991;50.058;14.454;2023-03-01T10:55:46;22.02;;;10.88;;
77800;SDS011;66991;50.058;14.454;2023-03-01T11:01:24;22.30;;;11.40;;
77800;SDS011;66991;50.058;14.454;2023-03-01T11:03:40;31.85;;;11.30;;
77800;SDS011;66991;50.058;14.454;2023-03-01T11:11:16;23.25;;;11.05;;
77800;SDS011;66991;50.058;14.454;2023-03-01T11:14:20;24.63;;;11.93;;
77800;SDS011;66991;50.058;14.454;2023-03-01T11:16:47;27.35;;;12.38;;
77800;SDS011;66991;50.058;14.454;2023-03-01T11:19:15;27.50;;;12.77;;
77800;SDS011;66991;50.058;14.454;2023-03-01T11:21:54;26.10;;;12.85;;
77800;SDS011;66991;50.058;14.454;2023-03-01T11:24:21;23.90;;;11.43;;
77800;SDS011;66991;50.058;14.454;2023-03-01T11:26:52;27.88;;;11.93;;
77800;SDS011;66991;50.058;14.454;2023-03-01T11:30:03;24.90;;;12.02;;
77800;SDS011;66991;50.058;14.454;2023-03-01T11:32:11;20.92;;;10.38;;
77800;SDS011;66991;50.058;14.454;2023-03-01T11:37:32;25.42;;;11.57;;
77800;SDS011;66991;50.058;14.454;2023-03-01T11:42:48;22.60;;;10.63;;
77800;SDS011;66991;50.058;14.454;2023-03-01T11:45:17;21.75;;;11.25;;
77800;SDS011;66991;50.058;14.454;2023-03-01T11:47:46;19.52;;;10.75;;
77800;SDS011;66991;50.058;14.454;2023-03-01T11:50:19;20.90;;;11.20;;
77800;SDS011;66991;50.058;14.454;2023-03-01T12:09:27;21.52;;;11.75;;
77800;SDS011;66991;50.058;14.454;2023-03-01T12:18:05;27.75;;;13.20;;
77800;SDS011;66991;50.058;14.454;2023-03-01T12:20:36;29.17;;;12.65;;
77800;SDS011;66991;50.058;14.454;2023-03-01T12:31:44;26.95;;;13.15;;
77800;SDS011;66991;50.058;14.454;2023-03-01T12:34:19;21.60;;;11.85;;
77800;SDS011;66991;50.058;14.454;2023-03-01T12:51:24;24.08;;;11.40;;
77800;SDS011;66991;50.058;14.454;2023-03-01T12:53:53;26.92;;;12.73;;
77800;SDS011;66991;50.058;14.454;2023-03-01T12:56:24;20.33;;;11.75;;
77800;SDS011;66991;50.058;14.454;2023-03-01T12:58:52;24.70;;;11.50;;
77800;SDS011;66991;50.058;14.454;2023-03-01T13:13:22;24.50;;;12.18;;
77800;SDS011;66991;50.058;14.454;2023-03-01T13:15:50;26.08;;;11.73;;
77800;SDS011;66991;50.058;14.454;2023-03-01T13:23:08;24.00;;;12.07;;
77800;SDS011;66991;50.058;14.454;2023-03-01T13:30:59;28.05;;;13.18;;
77800;SDS011;66991;50.058;14.454;2023-03-01T13:35:56;27.38;;;12.43;;
77800;SDS011;66991;50.058;14.454;2023-03-01T13:41:03;21.95;;;12.00;;
77800;SDS011;66991;50.058;14.454;2023-03-01T13:43:36;22.08;;;11.13;;
77800;SDS011;66991;50.058;14.454;2023-03-01T13:46:07;24.08;;;11.73;;
77800;SDS011;66991;50.058;14.454;2023-03-01T13:48:39;23.33;;;10.98;;
77800;SDS011;66991;50.058;14.454;2023-03-01T13:51:06;23.35;;;12.10;;
77800;SDS011;66991;50.058;14.454;2023-03-01T13:53:34;19.98;;;11.55;;
77800;SDS011;66991;50.058;14.454;2023-03-01T13:56:03;22.08;;;11.82;;
77800;SDS011;66991;50.058;14.454;2023-03-01T13:58:33;25.35;;;11.88;;
77800;SDS011;66991;50.058;14.454;2023-03-01T14:01:26;23.33;;;10.43;;
77800;SDS011;66991;50.058;14.454;2023-03-01T14:03:53;20.83;;;10.23;;
77800;SDS011;66991;50.058;14.454;2023-03-01T14:06:20;22.17;;;11.27;;
77800;SDS011;66991;50.058;14.454;2023-03-01T14:08:49;23.05;;;10.65;;
77800;SDS011;66991;50.058;14.454;2023-03-01T14:14:18;19.58;;;10.48;;
77800;SDS011;66991;50.058;14.454;2023-03-01T14:16:59;21.42;;;10.80;;
77800;SDS011;66991;50.058;14.454;2023-03-01T14:19:29;18.52;;;10.90;;
77800;SDS011;66991;50.058;14.454;2023-03-01T14:24:37;19.30;;;10.35;;
77800;SDS011;66991;50.058;14.454;2023-03-01T14:27:04;18.17;;;10.80;;
77800;SDS011;66991;50.058;14.454;2023-03-01T14:29:37;20.88;;;10.90;;
77800;SDS011;66991;50.058;14.454;2023-03-01T14:32:17;19.90;;;10.82;;
77800;SDS011;66991;50.058;14.454;2023-03-01T14:34:45;20.35;;;9.98;;
77800;SDS011;66991;50.058;14.454;2023-03-01T14:39:43;20.98;;;11.00;;
77800;SDS011;66991;50.058;14.454;2023-03-01T14:42:09;21.95;;;11.20;;
77800;SDS011;66991;50.058;14.454;2023-03-01T14:44:34;21.90;;;10.88;;
77800;SDS011;66991;50.058;14.454;2023-03-01T14:47:02;22.33;;;10.85;;
77800;SDS011;66991;50.058;14.454;2023-03-01T14:49:29;19.52;;;10.90;;
77800;SDS011;66991;50.058;14.454;2023-03-01T14:52:02;20.23;;;10.90;;
77800;SDS011;66991;50.058;14.454;2023-03-01T14:54:34;23.30;;;10.82;;
77800;SDS011;66991;50.058;14.454;2023-03-01T14:57:15;19.58;;;9.73;;
77800;SDS011;66991;50.058;14.454;2023-03-01T14:59:42;27.42;;;11.05;;
77800;SDS011;66991;50.058;14.454;2023-03-01T15:02:08;16.23;;;10.70;;
77800;SDS011;66991;50.058;14.454;2023-03-01T15:04:41;17.77;;;10.18;;
77800;SDS011;66991;50.058;14.454;2023-03-01T15:07:09;17.75;;;9.68;;
77800;SDS011;66991;50.058;14.454;2023-03-01T15:09:40;16.58;;;9.40;;
77800;SDS011;66991;50.058;14.454;2023-03-01T15:14:59;20.25;;;9.15;;
77800;SDS011;66991;50.058;14.454;2023-03-01T15:20:04;18.33;;;9.90;;
77800;SDS011;66991;50.058;14.454;2023-03-01T15:22:31;18.00;;;8.93;;
77800;SDS011;66991;50.058;14.454;2023-03-01T15:24:57;15.38;;;8.00;;
77800;SDS011;66991;50.058;14.454;2023-03-01T15:27:23;16.17;;;8.52;;
77800;SDS011;66991;50.058;14.454;2023-03-01T15:29:53;17.35;;;9.30;;
77800;SDS011;66991;50.058;14.454;2023-03-01T15:34:52;26.23;;;10.65;;
77800;SDS011;66991;50.058;14.454;2023-03-01T15:38:02;19.52;;;10.05;;
77800;SDS011;66991;50.058;14.454;2023-03-01T15:42:49;17.27;;;9.20;;
77800;SDS011;66991;50.058;14.454;2023-03-01T15:47:43;16.35;;;9.27;;
77800;SDS011;66991;50.058;14.454;2023-03-01T15:50:32;15.35;;;7.82;;
77800;SDS011;66991;50.058;14.454;2023-03-01T15:52:59;15.45;;;9.02;;
77800;SDS011;66991;50.058;14.454;2023-03-01T15:55:26;16.75;;;8.63;;
77800;SDS011;66991;50.058;14.454;2023-03-01T15:57:59;18.15;;;9.23;;
77800;SDS011;66991;50.058;14.454;2023-03-01T16:00:35;18.05;;;9.07;;
77800;SDS011;66991;50.058;14.454;2023-03-01T16:03:00;17.63;;;9.05;;
77800;SDS011;66991;50.058;14.454;2023-03-01T16:05:26;16.13;;;9.00;;
77800;SDS011;66991;50.058;14.454;2023-03-01T16:07:53;19.25;;;9.70;;
77800;SDS011;66991;50.058;14.454;2023-03-01T16:10:19;15.80;;;8.55;;
77800;SDS011;66991;50.058;14.454;2023-03-01T16:12:45;15.73;;;8.57;;
77800;SDS011;66991;50.058;14.454;2023-03-01T16:15:17;14.77;;;9.38;;
77800;SDS011;66991;50.058;14.454;2023-03-01T16:17:45;17.95;;;9.40;;
77800;SDS011;66991;50.058;14.454;2023-03-01T16:20:11;19.70;;;9.00;;
77800;SDS011;66991;50.058;14.454;2023-03-01T16:22:36;18.75;;;9.65;;
77800;SDS011;66991;50.058;14.454;2023-03-01T16:25:02;21.25;;;10.50;;
77800;SDS011;66991;50.058;14.454;2023-03-01T16:27:27;18.42;;;9.45;;
77800;SDS011;66991;50.058;14.454;2023-03-01T16:29:53;17.63;;;9.63;;
77800;SDS011;66991;50.058;14.454;2023-03-01T16:32:18;16.77;;;9.23;;